Time;durP1;ratioP1;P1;durP2;ratioP2;P2;SDS_P1;SDS_P2;PMS_P1;PMS_P2;Temp;Humidity;BMP_temperature;BMP_pressure;BME280_temperature;BME280_humidity;BME280_pressure;Samples;Min_cycle;Max_cycle;Signal;HPM_P1;HPM_P2
2021/03/22 00:02:07;;;;;;;12.88;9.38;;;;;;;;;;5009566;28;20065;-60
2021/03/22 00:04:39;;;;;;;12.15;8.00;;;;;;;;;;4994929;28;20022;-60
2021/03/22 00:07:05;;;;;;;9.73;7.07;;;;;;;;;;4994762;28;20049;-60
2021/03/22 00:09:30;;;;;;;10.70;7.60;;;;;;;;;;4994536;28;20022;-59
2021/03/22 00:11:56;;;;;;;9.27;6.90;;;;;;;;;;4993222;28;20069;-60
2021/03/22 00:14:25;;;;;;;8.88;6.93;;;;;;;;;;4994358;28;20014;-60
2021/03/22 00:16:52;;;;;;;8.45;6.88;;;;;;;;;;4994231;28;20125;-60
2021/03/22 00:19:19;;;;;;;10.93;7.45;;;;;;;;;;4994421;28;20038;-60
2021/03/22 00:21:45;;;;;;;9.80;6.40;;;;;;;;;;4993932;28;20026;-60
2021/03/22 00:24:10;;;;;;;9.07;6.13;;;;;;;;;;4994018;28;20030;-60
2021/03/22 00:26:36;;;;;;;8.82;6.80;;;;;;;;;;4992982;28;20181;-61
2021/03/22 00:29:03;;;;;;;10.38;6.75;;;;;;;;;;4977111;28;20462;-61
2021/03/22 00:31:28;;;;;;;11.18;8.10;;;;;;;;;;4994537;28;20104;-60
2021/03/22 00:33:54;;;;;;;11.32;8.13;;;;;;;;;;4993886;28;20053;-60
2021/03/22 00:36:19;;;;;;;8.60;6.38;;;;;;;;;;4994003;28;20030;-60
2021/03/22 00:38:45;;;;;;;6.78;5.28;;;;;;;;;;4994506;28;20026;-60
2021/03/22 00:41:11;;;;;;;8.27;6.00;;;;;;;;;;4993974;28;20035;-60
2021/03/22 00:43:36;;;;;;;8.38;6.07;;;;;;;;;;4994286;28;20018;-60
2021/03/22 00:46:02;;;;;;;8.35;5.82;;;;;;;;;;4992794;28;20030;-60
2021/03/22 00:48:29;;;;;;;10.00;6.45;;;;;;;;;;4994145;28;20073;-60
2021/03/22 00:50:56;;;;;;;9.60;6.85;;;;;;;;;;4994051;28;20477;-60
2021/03/22 00:53:22;;;;;;;8.38;5.90;;;;;;;;;;4993633;28;20470;-60
2021/03/22 00:55:47;;;;;;;8.95;6.88;;;;;;;;;;4993693;28;20085;-60
2021/03/22 00:58:13;;;;;;;7.25;6.55;;;;;;;;;;4993759;28;20026;-60
2021/03/22 01:00:44;;;;;;;12.07;7.32;;;;;;;;;;4993804;28;20402;-60
2021/03/22 01:03:11;;;;;;;;;;;;;;;;;;4977069;28;20503;-60
2021/03/22 01:05:36;;;;;;;9.43;6.45;;;;;;;;;;5008968;28;19913;-60
2021/03/22 01:08:05;;;;;;;8.73;6.18;;;;;;;;;;4993624;28;20022;-60
2021/03/22 01:10:46;;;;;;;9.32;6.30;;;;;;;;;;5008960;28;20023;-60
2021/03/22 01:13:22;;;;;;;10.10;7.13;;;;;;;;;;4993765;28;20038;-59
2021/03/22 01:15:48;;;;;;;9.73;6.28;;;;;;;;;;5008780;28;20141;-60
2021/03/22 01:18:21;;;;;;;9.77;6.70;;;;;;;;;;4993934;28;20145;-60
2021/03/22 01:20:55;;;;;;;8.85;5.72;;;;;;;;;;4993463;28;20479;-60
2021/03/22 01:23:23;;;;;;;8.65;5.97;;;;;;;;;;4993774;28;20029;-60
2021/03/22 01:25:48;;;;;;;7.22;5.15;;;;;;;;;;4994838;28;20021;-59
2021/03/22 01:28:14;;;;;;;7.60;5.82;;;;;;;;;;4997214;28;20398;-60
2021/03/22 01:30:52;;;;;;;8.80;5.90;;;;;;;;;;4997565;28;20450;-60
2021/03/22 01:33:22;;;;;;;10.68;6.60;;;;;;;;;;4995903;28;20042;-60
2021/03/22 01:35:47;;;;;;;9.25;6.20;;;;;;;;;;4979908;28;20109;-60
2021/03/22 01:38:13;;;;;;;11.38;6.10;;;;;;;;;;4997585;28;20471;-60
2021/03/22 01:40:48;;;;;;;9.50;6.35;;;;;;;;;;4979923;28;20030;-60
2021/03/22 01:43:16;;;;;;;6.72;5.43;;;;;;;;;;4997209;28;20034;-60
2021/03/22 01:45:42;;;;;;;8.35;5.85;;;;;;;;;;4996871;28;20022;-60
2021/03/22 01:48:07;;;;;;;9.68;5.55;;;;;;;;;;4997033;28;20371;-60
2021/03/22 01:50:33;;;;;;;7.05;4.60;;;;;;;;;;4997150;28;20378;-60
2021/03/22 01:53:00;;;;;;;6.82;5.55;;;;;;;;;;4997208;28;20034;-60
2021/03/22 01:55:26;;;;;;;5.15;4.55;;;;;;;;;;4995448;28;20030;-60
2021/03/22 01:57:51;;;;;;;6.90;4.57;;;;;;;;;;4997218;28;20034;-60
2021/03/22 02:00:27;;;;;;;7.43;4.60;;;;;;;;;;4996905;28;20128;-60
2021/03/22 02:03:07;;;;;;;5.20;4.70;;;;;;;;;;4996576;28;20038;-60
2021/03/22 02:05:34;;;;;;;7.68;4.88;;;;;;;;;;4996426;28;20030;-59
2021/03/22 02:08:09;;;;;;;6.18;4.45;;;;;;;;;;4979009;28;20065;-60
2021/03/22 02:10:42;;;;;;;7.22;4.50;;;;;;;;;;4995189;28;20030;-60
2021/03/22 02:13:11;;;;;;;5.97;3.88;;;;;;;;;;4979609;28;20031;-60
2021/03/22 02:15:38;;;;;;;4.50;3.80;;;;;;;;;;4996518;28;20026;-66
2021/03/22 02:18:24;;;;;;;5.55;4.20;;;;;;;;;;4996365;28;20395;-66
2021/03/22 02:21:09;;;;;;;5.45;4.20;;;;;;;;;;4966028;28;20058;-66
2021/03/22 02:23:40;;;;;;;7.15;5.10;;;;;;;;;;4996662;28;20035;-66
2021/03/22 02:26:18;;;;;;;7.25;4.35;;;;;;;;;;4994950;28;20038;-66
2021/03/22 02:29:10;;;;;;;7.10;4.68;;;;;;;;;;4996034;28;20033;-66
2021/03/22 02:31:59;;;;;;;6.00;4.72;;;;;;;;;;4995979;28;20494;-66
2021/03/22 02:34:28;;;;;;;7.18;3.90;;;;;;;;;;5011589;28;20508;-66
2021/03/22 02:36:56;;;;;;;6.63;4.30;;;;;;;;;;5011391;28;20029;-66
2021/03/22 02:39:22;;;;;;;5.15;4.25;;;;;;;;;;4996084;28;20114;-66
2021/03/22 02:41:49;;;;;;;5.78;3.70;;;;;;;;;;4995634;28;20018;-66
2021/03/22 02:44:22;;;;;;;5.88;4.00;;;;;;;;;;4996018;28;20390;-66
2021/03/22 02:47:08;;;;;;;4.68;3.63;;;;;;;;;;4978786;28;20382;-66
2021/03/22 02:49:35;;;;;;;4.72;3.67;;;;;;;;;;4995581;28;20076;-66
2021/03/22 02:52:14;;;;;;;4.15;3.53;;;;;;;;;;4995833;28;20069;-66
2021/03/22 02:54:59;;;;;;;5.10;3.75;;;;;;;;;;4978700;28;20070;-66
2021/03/22 02:57:39;;;;;;;4.15;3.60;;;;;;;;;;5010727;28;20038;-66
2021/03/22 03:00:07;;;;;;;5.57;3.90;;;;;;;;;;5010953;28;20026;-65
2021/03/22 03:02:34;;;;;;;5.85;3.85;;;;;;;;;;4995846;28;20034;-66
2021/03/22 03:05:19;;;;;;;6.93;4.40;;;;;;;;;;4995922;28;20018;-66
2021/03/22 03:07:45;;;;;;;3.97;3.28;;;;;;;;;;4994978;28;20383;-66
2021/03/22 03:10:11;;;;;;;7.88;4.10;;;;;;;;;;5010833;28;20029;-65
2021/03/22 03:12:37;;;;;;;4.15;3.63;;;;;;;;;;4995514;28;20027;-66
2021/03/22 03:15:03;;;;;;;5.57;4.05;;;;;;;;;;4995566;28;20561;-66
2021/03/22 03:17:35;;;;;;;6.25;4.05;;;;;;;;;;4994889;28;20392;-67
2021/03/22 03:20:01;;;;;;;7.25;4.80;;;;;;;;;;4995505;28;20105;-66
2021/03/22 03:22:26;;;;;;;6.35;4.18;;;;;;;;;;5010233;28;20463;-66
2021/03/22 03:24:52;;;;;;;6.07;4.00;;;;;;;;;;4995169;28;20038;-66
2021/03/22 03:27:17;;;;;;;7.38;4.75;;;;;;;;;;4995601;28;20170;-67
2021/03/22 03:29:44;;;;;;;7.45;4.75;;;;;;;;;;4994983;28;20081;-67
2021/03/22 03:32:11;;;;;;;6.30;3.85;;;;;;;;;;4977839;28;20101;-66
2021/03/22 03:34:37;;;;;;;7.13;4.00;;;;;;;;;;4977930;28;20121;-66
2021/03/22 03:37:03;;;;;;;5.78;4.00;;;;;;;;;;4995057;28;20046;-66
2021/03/22 03:39:29;;;;;;;6.30;4.00;;;;;;;;;;4994812;28;20041;-66
2021/03/22 03:41:54;;;;;;;4.32;3.47;;;;;;;;;;4977617;28;20073;-67
2021/03/22 03:44:20;;;;;;;6.25;4.15;;;;;;;;;;4994648;28;20446;-66
2021/03/22 03:46:45;;;;;;;4.47;3.70;;;;;;;;;;4995128;28;20019;-66
2021/03/22 03:49:11;;;;;;;4.22;3.70;;;;;;;;;;4994210;28;20045;-66
2021/03/22 03:51:37;;;;;;;5.72;3.80;;;;;;;;;;4994677;28;20030;-66
2021/03/22 03:54:04;;;;;;;5.78;4.00;;;;;;;;;;4994794;28;20022;-65
2021/03/22 03:56:29;;;;;;;5.35;3.50;;;;;;;;;;4994833;28;20022;-65
2021/03/22 03:58:55;;;;;;;6.25;3.97;;;;;;;;;;4994345;28;20049;-66
2021/03/22 04:01:21;;;;;;;6.25;3.90;;;;;;;;;;4994510;28;20113;-65
2021/03/22 04:03:46;;;;;;;6.00;4.28;;;;;;;;;;4994321;28;20023;-65
2021/03/22 04:06:17;;;;;;;5.00;4.20;;;;;;;;;;4994751;28;20036;-65
2021/03/22 04:08:42;;;;;;;;;;;;;;;;;;4994787;28;20471;-65
2021/03/22 04:11:09;;;;;;;6.80;4.28;;;;;;;;;;5009819;28;19905;-65
2021/03/22 04:13:37;;;;;;;5.88;4.38;;;;;;;;;;4994250;28;20022;-65
2021/03/22 04:16:03;;;;;;;7.15;4.10;;;;;;;;;;4994347;28;20029;-66
2021/03/22 04:18:29;;;;;;;7.65;4.45;;;;;;;;;;5009379;28;20422;-66
2021/03/22 04:20:54;;;;;;;4.82;4.18;;;;;;;;;;4994023;28;20061;-67
2021/03/22 04:23:20;;;;;;;7.07;4.32;;;;;;;;;;4993938;28;20042;-66
2021/03/22 04:25:46;;;;;;;9.07;4.65;;;;;;;;;;4993998;28;20025;-66
2021/03/22 04:28:11;;;;;;;6.32;4.30;;;;;;;;;;4994393;28;20038;-66
2021/03/22 04:30:37;;;;;;;7.18;4.75;;;;;;;;;;5009025;28;20026;-67
2021/03/22 04:33:03;;;;;;;6.70;4.43;;;;;;;;;;4994637;28;20038;-66
2021/03/22 04:35:29;;;;;;;6.32;4.72;;;;;;;;;;4994358;28;20072;-67
2021/03/22 04:37:59;;;;;;;6.05;4.45;;;;;;;;;;4994344;28;20113;-67
2021/03/22 04:40:26;;;;;;;7.60;5.40;;;;;;;;;;4994294;28;20041;-67
2021/03/22 04:42:52;;;;;;;7.30;5.13;;;;;;;;;;4976404;28;20514;-66
2021/03/22 04:45:19;;;;;;;10.30;5.70;;;;;;;;;;4993841;28;20050;-66
2021/03/22 04:47:45;;;;;;;8.38;5.35;;;;;;;;;;4993957;28;20045;-66
2021/03/22 04:50:11;;;;;;;8.70;5.60;;;;;;;;;;4994268;28;20023;-66
2021/03/22 04:52:37;;;;;;;8.70;5.70;;;;;;;;;;4993845;28;20501;-66
2021/03/22 04:55:02;;;;;;;9.43;5.78;;;;;;;;;;4993793;28;20018;-66
2021/03/22 04:57:29;;;;;;;9.85;6.30;;;;;;;;;;4993796;28;20497;-66
2021/03/22 04:59:55;;;;;;;8.48;5.63;;;;;;;;;;4994213;28;20049;-66
2021/03/22 05:02:21;;;;;;;11.02;6.75;;;;;;;;;;4997626;28;20058;-66
2021/03/22 05:04:47;;;;;;;9.45;6.00;;;;;;;;;;4998057;28;20061;-66
2021/03/22 05:07:17;;;;;;;18.08;12.82;;;;;;;;;;4997934;28;20034;-66
2021/03/22 05:09:43;;;;;;;17.42;10.05;;;;;;;;;;4997843;28;20030;-60
2021/03/22 05:12:09;;;;;;;12.35;7.97;;;;;;;;;;4980462;28;20041;-60
2021/03/22 05:14:34;;;;;;;27.48;14.90;;;;;;;;;;4997619;28;20018;-60
2021/03/22 05:17:00;;;;;;;49.17;25.15;;;;;;;;;;4997078;28;20116;-60
2021/03/22 05:19:26;;;;;;;149.20;77.85;;;;;;;;;;4997463;28;20053;-60
2021/03/22 05:21:54;;;;;;;27.05;17.13;;;;;;;;;;4997321;28;20084;-60
2021/03/22 05:24:20;;;;;;;222.68;108.30;;;;;;;;;;4997331;28;20018;-61
2021/03/22 05:26:45;;;;;;;45.08;22.08;;;;;;;;;;4997509;28;20052;-60
2021/03/22 05:29:11;;;;;;;33.60;16.88;;;;;;;;;;4997243;28;20486;-59
2021/03/22 05:31:36;;;;;;;42.15;18.98;;;;;;;;;;4997062;28;20045;-60
2021/03/22 05:34:02;;;;;;;76.40;34.83;;;;;;;;;;5012601;28;20347;-60
2021/03/22 05:36:28;;;;;;;120.82;51.95;;;;;;;;;;5012460;28;20031;-59
2021/03/22 05:38:54;;;;;;;40.90;17.52;;;;;;;;;;4997755;28;20073;-60
2021/03/22 05:41:21;;;;;;;26.10;12.90;;;;;;;;;;4997541;28;20026;-60
2021/03/22 05:43:49;;;;;;;58.10;23.75;;;;;;;;;;4997014;28;20477;-60
2021/03/22 05:46:29;;;;;;;31.90;14.65;;;;;;;;;;4996505;28;20406;-61
2021/03/22 05:49:05;;;;;;;34.38;15.27;;;;;;;;;;4996625;28;20109;-60
2021/03/22 05:51:49;;;;;;;104.63;42.10;;;;;;;;;;4995688;28;20049;-60
2021/03/22 05:54:27;;;;;;;22.70;11.70;;;;;;;;;;4996713;28;20034;-60
2021/03/22 05:57:00;;;;;;;146.88;55.90;;;;;;;;;;4996707;28;20113;-60
2021/03/22 05:59:32;;;;;;;52.83;25.80;;;;;;;;;;4996695;28;20026;-60
2021/03/22 06:02:03;;;;;;;22.95;9.77;;;;;;;;;;4996613;28;20030;-60
2021/03/22 06:04:32;;;;;;;38.42;18.35;;;;;;;;;;4996847;28;20034;-60
2021/03/22 06:06:58;;;;;;;82.50;41.55;;;;;;;;;;4996668;28;20081;-60
2021/03/22 06:09:26;;;;;;;31.00;19.75;;;;;;;;;;4998464;28;20564;-65
2021/03/22 06:11:54;;;;;;;23.70;13.90;;;;;;;;;;5010873;28;20036;-66
2021/03/22 06:14:55;;;;;;;31.10;20.92;;;;;;;;;;5013152;28;20434;-66
2021/03/22 06:17:20;;;;;;;;;;;;;;;;;;4973929;28;20090;-66
2021/03/22 06:19:52;;;;;;;24.40;14.15;;;;;;;;;;5005281;28;20000;-66
2021/03/22 06:22:20;;;;;;;41.85;22.92;;;;;;;;;;5016443;28;20026;-66
2021/03/22 06:24:46;;;;;;;27.90;16.90;;;;;;;;;;5015826;28;20033;-66
2021/03/22 06:27:13;;;;;;;15.85;10.63;;;;;;;;;;5011830;28;20084;-66
2021/03/22 06:29:39;;;;;;;13.88;8.32;;;;;;;;;;5015298;28;20466;-66
2021/03/22 06:32:12;;;;;;;29.08;15.27;;;;;;;;;;5015770;28;20113;-66
2021/03/22 06:34:46;;;;;;;13.80;9.10;;;;;;;;;;5011083;28;20088;-66
2021/03/22 06:37:12;;;;;;;10.02;6.18;;;;;;;;;;5013889;28;20092;-66
2021/03/22 06:39:41;;;;;;;9.25;5.85;;;;;;;;;;5015224;28;20017;-66
2021/03/22 06:42:19;;;;;;;7.70;5.47;;;;;;;;;;5015642;28;20474;-66
2021/03/22 06:44:44;;;;;;;10.00;6.03;;;;;;;;;;5015551;28;20053;-66
2021/03/22 06:47:10;;;;;;;8.23;4.88;;;;;;;;;;5011884;28;20108;-66
2021/03/22 06:49:36;;;;;;;6.43;4.80;;;;;;;;;;5013292;28;20118;-66
2021/03/22 06:52:07;;;;;;;6.93;4.35;;;;;;;;;;5012566;28;20032;-64
2021/03/22 06:54:32;;;;;;;6.10;4.40;;;;;;;;;;5015036;28;20406;-64
2021/03/22 06:57:04;;;;;;;7.75;3.60;;;;;;;;;;5014735;28;20034;-64
2021/03/22 06:59:30;;;;;;;5.85;3.63;;;;;;;;;;5030445;28;20033;-64
2021/03/22 07:02:09;;;;;;;4.28;3.03;;;;;;;;;;5015183;28;20105;-63
2021/03/22 07:04:37;;;;;;;6.18;3.92;;;;;;;;;;5015083;28;20022;-64
2021/03/22 07:07:07;;;;;;;5.30;3.20;;;;;;;;;;5013678;28;20477;-64
2021/03/22 07:09:34;;;;;;;4.88;3.97;;;;;;;;;;5015276;28;20116;-64
2021/03/22 07:12:00;;;;;;;4.70;3.67;;;;;;;;;;5015265;28;20021;-64
2021/03/22 07:14:28;;;;;;;5.60;3.22;;;;;;;;;;5014799;28;20034;-64
2021/03/22 07:17:02;;;;;;;6.80;4.70;;;;;;;;;;4997026;28;20082;-64
2021/03/22 07:19:28;;;;;;;5.60;3.92;;;;;;;;;;5014938;28;20060;-64
2021/03/22 07:21:56;;;;;;;13.48;5.05;;;;;;;;;;5015045;28;20053;-64
2021/03/22 07:24:31;;;;;;;3.30;2.38;;;;;;;;;;5013903;28;20026;-64
2021/03/22 07:27:12;;;;;;;6.38;3.75;;;;;;;;;;5030032;28;20041;-64
2021/03/22 07:29:40;;;;;;;51.05;31.38;;;;;;;;;;5014712;28;20509;-64
2021/03/22 07:32:09;;;;;;;125.93;73.53;;;;;;;;;;4996646;28;20024;-60
2021/03/22 07:34:50;;;;;;;121.70;75.78;;;;;;;;;;5013519;28;20549;-60
2021/03/22 07:37:18;;;;;;;9.23;5.65;;;;;;;;;;5014782;28;20041;-60
2021/03/22 07:40:19;;;;;;;1033.97;674.88;;;;;;;;;;5014830;28;20057;-59
2021/03/22 07:42:58;;;;;;;907.92;664.78;;;;;;;;;;4973543;28;20066;-60
2021/03/22 07:45:26;;;;;;;130.93;50.22;;;;;;;;;;5009527;28;20037;-60
2021/03/22 07:48:11;;;;;;;175.80;41.95;;;;;;;;;;5029614;28;20034;-60
2021/03/22 07:50:46;;;;;;;682.28;390.80;;;;;;;;;;4996977;28;20026;-60
2021/03/22 07:53:15;;;;;;;1509.85;696.22;;;;;;;;;;5013609;28;20072;-60
2021/03/22 07:55:49;;;;;;;1938.35;666.20;;;;;;;;;;5033105;28;20044;-60
2021/03/22 07:58:32;;;;;;;717.40;362.80;;;;;;;;;;5033678;28;20041;-60
2021/03/22 08:01:15;;;;;;;767.30;383.73;;;;;;;;;;5034181;28;20488;-60
2021/03/22 08:04:20;;;;;;;1644.90;733.33;;;;;;;;;;5016279;28;20112;-60
2021/03/22 08:06:58;;;;;;;926.05;381.67;;;;;;;;;;4973319;28;20029;-59
2021/03/22 08:09:33;;;;;;;1999.90;808.95;;;;;;;;;;4972600;28;20142;-60
2021/03/22 08:12:02;;;;;;;153.35;64.65;;;;;;;;;;5000040;28;20401;-60
2021/03/22 08:14:30;;;;;;;17.90;10.32;;;;;;;;;;5033982;28;20029;-59
2021/03/22 08:17:03;;;;;;;52.40;31.30;;;;;;;;;;5023893;28;20405;-60
2021/03/22 08:19:39;;;;;;;16.33;11.55;;;;;;;;;;5013758;28;20497;-60
2021/03/22 08:22:14;;;;;;;112.00;58.75;;;;;;;;;;5005834;28;20474;-59
2021/03/22 08:24:46;;;;;;;31.92;21.20;;;;;;;;;;5009248;28;20482;-60
2021/03/22 08:27:13;;;;;;;23.00;18.35;;;;;;;;;;4994409;28;20077;-60
2021/03/22 08:30:03;;;;;;;19.40;13.18;;;;;;;;;;4992833;28;20022;-60
2021/03/22 08:32:42;;;;;;;4.30;2.92;;;;;;;;;;4976528;28;20046;-60
2021/03/22 08:35:09;;;;;;;7.40;6.63;;;;;;;;;;4994557;28;20487;-60
2021/03/22 08:37:39;;;;;;;4.20;3.85;;;;;;;;;;5009313;28;20113;-60
2021/03/22 08:40:04;;;;;;;24.20;14.40;;;;;;;;;;4993807;28;20386;-60
2021/03/22 08:42:33;;;;;;;8.75;6.22;;;;;;;;;;4993861;28;20023;-59
2021/03/22 08:45:05;;;;;;;28.42;16.55;;;;;;;;;;4993829;28;20479;-60
2021/03/22 08:47:40;;;;;;;373.13;171.80;;;;;;;;;;4993936;28;20352;-59
2021/03/22 08:50:08;;;;;;;330.42;184.20;;;;;;;;;;4993768;28;20105;-60
2021/03/22 08:52:34;;;;;;;6.50;4.70;;;;;;;;;;4994020;28;20023;-60
2021/03/22 08:55:15;;;;;;;5.38;3.90;;;;;;;;;;4993574;28;20399;-61
2021/03/22 08:58:01;;;;;;;7.57;4.35;;;;;;;;;;4993718;28;20169;-60
2021/03/22 09:00:31;;;;;;;6.93;3.47;;;;;;;;;;4989854;28;20070;-60
2021/03/22 09:03:02;;;;;;;3.00;2.38;;;;;;;;;;4993602;28;20390;-60
2021/03/22 09:05:27;;;;;;;;;;;;;;;;;;4994409;28;20348;-60
2021/03/22 09:08:12;;;;;;;10.57;7.10;;;;;;;;;;4993797;28;19916;-60
2021/03/22 09:10:40;;;;;;;6.25;4.78;;;;;;;;;;4993971;28;20370;-61
2021/03/22 09:13:26;;;;;;;59.20;44.08;;;;;;;;;;4993594;28;20027;-60
2021/03/22 09:16:18;;;;;;;28.63;19.67;;;;;;;;;;4993863;28;20030;-60
2021/03/22 09:19:02;;;;;;;13.38;10.63;;;;;;;;;;5004613;28;20141;-63
2021/03/22 09:21:30;;;;;;;10.70;6.90;;;;;;;;;;5028155;28;20065;-62
2021/03/22 09:23:56;;;;;;;6.00;4.88;;;;;;;;;;5012683;28;20462;-62
2021/03/22 09:26:53;;;;;;;8.45;7.50;;;;;;;;;;5028243;28;20045;-63
2021/03/22 09:29:31;;;;;;;4.53;4.10;;;;;;;;;;5012992;28;20037;-62
2021/03/22 09:31:57;;;;;;;4.43;3.53;;;;;;;;;;5013071;28;20030;-63
2021/03/22 09:34:23;;;;;;;19.08;7.55;;;;;;;;;;4995435;28;20382;-63
2021/03/22 09:36:49;;;;;;;11.48;7.75;;;;;;;;;;5012930;28;20092;-63
2021/03/22 09:39:14;;;;;;;2.90;2.70;;;;;;;;;;5013112;28;20113;-63
2021/03/22 09:41:55;;;;;;;4.68;4.05;;;;;;;;;;5012707;28;20053;-63
2021/03/22 09:44:29;;;;;;;2.88;2.65;;;;;;;;;;5028172;28;20030;-63
2021/03/22 09:47:13;;;;;;;7.03;5.25;;;;;;;;;;5013593;28;20116;-63
2021/03/22 09:49:57;;;;;;;20.38;12.38;;;;;;;;;;5015858;28;20038;-63
2021/03/22 09:52:24;;;;;;;3.45;2.17;;;;;;;;;;5014899;28;20116;-63
2021/03/22 09:54:50;;;;;;;3.70;3.28;;;;;;;;;;5029950;28;20034;-63
2021/03/22 09:57:15;;;;;;;6.32;5.22;;;;;;;;;;5015046;28;20033;-63
2021/03/22 09:59:59;;;;;;;2.53;2.20;;;;;;;;;;5015321;28;20161;-63
2021/03/22 10:02:27;;;;;;;188.73;87.68;;;;;;;;;;5014912;28;20034;-63
2021/03/22 10:05:08;;;;;;;125.93;57.10;;;;;;;;;;5015493;28;20041;-63
2021/03/22 10:07:35;;;;;;;9.38;6.72;;;;;;;;;;5014924;28;20045;-63
2021/03/22 10:10:14;;;;;;;13.90;7.22;;;;;;;;;;5016057;28;20041;-63
2021/03/22 10:12:47;;;;;;;7.25;4.00;;;;;;;;;;5016025;28;20474;-63
2021/03/22 10:15:12;;;;;;;345.52;132.32;;;;;;;;;;5015217;28;20037;-63
2021/03/22 10:17:57;;;;;;;432.25;182.13;;;;;;;;;;5013524;28;20065;-63
2021/03/22 10:20:41;;;;;;;184.80;65.15;;;;;;;;;;5030470;28;20030;-62
2021/03/22 10:23:16;;;;;;;78.75;24.20;;;;;;;;;;5015015;28;20026;-62
2021/03/22 10:25:43;;;;;;;459.63;145.90;;;;;;;;;;5015312;28;20113;-62
2021/03/22 10:28:16;;;;;;;727.20;295.45;;;;;;;;;;5015301;28;20101;-62
2021/03/22 10:30:51;;;;;;;339.10;118.55;;;;;;;;;;5015553;28;20382;-62
2021/03/22 10:33:17;;;;;;;284.95;92.57;;;;;;;;;;5015600;28;20033;-62
2021/03/22 10:35:47;;;;;;;859.17;330.65;;;;;;;;;;5027095;28;20025;-62
2021/03/22 10:38:22;;;;;;;4.38;3.20;;;;;;;;;;5015416;28;20026;-62
2021/03/22 10:40:47;;;;;;;1014.33;397.15;;;;;;;;;;5015303;28;20030;-62
2021/03/22 10:43:33;;;;;;;998.38;367.90;;;;;;;;;;5015220;28;20030;-62
2021/03/22 10:46:18;;;;;;;80.25;28.02;;;;;;;;;;5015355;28;20478;-62
2021/03/22 10:48:45;;;;;;;821.45;319.00;;;;;;;;;;5015174;28;20055;-62
2021/03/22 10:51:16;;;;;;;442.25;145.27;;;;;;;;;;5015142;28;20018;-62
2021/03/22 10:54:11;;;;;;;187.18;62.70;;;;;;;;;;5015240;28;20025;-62
2021/03/22 10:56:45;;;;;;;651.90;232.63;;;;;;;;;;5009930;28;20478;-62
2021/03/22 10:59:20;;;;;;;841.55;300.52;;;;;;;;;;5013824;28;20030;-62
2021/03/22 11:01:47;;;;;;;630.70;249.80;;;;;;;;;;5014958;28;20030;-62
2021/03/22 11:04:18;;;;;;;497.50;182.48;;;;;;;;;;5014876;28;20026;-62
2021/03/22 11:06:45;;;;;;;99.30;39.67;;;;;;;;;;5014959;28;20026;-62
2021/03/22 11:09:18;;;;;;;7.07;3.97;;;;;;;;;;5013596;28;20441;-62
2021/03/22 11:11:44;;;;;;;251.73;108.82;;;;;;;;;;5014825;28;20037;-62
2021/03/22 11:14:13;;;;;;;31.35;13.05;;;;;;;;;;5014646;28;20026;-62
2021/03/22 11:16:41;;;;;;;2.58;1.35;;;;;;;;;;5014212;28;20045;-63
2021/03/22 11:19:10;;;;;;;2.10;1.92;;;;;;;;;;5014832;28;20034;-62
2021/03/22 11:21:39;;;;;;;24.05;8.52;;;;;;;;;;5029838;28;20030;-62
2021/03/22 11:24:05;;;;;;;28.10;10.88;;;;;;;;;;5014420;28;20056;-62
2021/03/22 11:26:30;;;;;;;213.80;76.57;;;;;;;;;;5029827;28;20466;-62
2021/03/22 11:29:14;;;;;;;11.30;6.70;;;;;;;;;;5014511;28;20014;-62
2021/03/22 11:31:41;;;;;;;240.68;112.88;;;;;;;;;;5014391;28;20540;-62
2021/03/22 11:34:13;;;;;;;529.47;259.20;;;;;;;;;;5014406;28;20026;-62
2021/03/22 11:36:41;;;;;;;294.27;119.05;;;;;;;;;;5014336;28;20486;-62
2021/03/22 11:39:14;;;;;;;34.00;16.83;;;;;;;;;;5014418;28;20038;-62
2021/03/22 11:41:42;;;;;;;85.65;40.70;;;;;;;;;;5014293;28;20033;-62
2021/03/22 11:44:14;;;;;;;244.32;106.28;;;;;;;;;;5014212;28;20061;-62
2021/03/22 11:46:40;;;;;;;326.08;156.38;;;;;;;;;;5014189;28;20065;-62
2021/03/22 11:49:26;;;;;;;14.30;9.73;;;;;;;;;;5014045;28;20022;-62
2021/03/22 11:51:52;;;;;;;273.30;141.80;;;;;;;;;;5014149;28;20033;-62
2021/03/22 11:54:17;;;;;;;311.25;162.60;;;;;;;;;;5013976;28;20434;-62
2021/03/22 11:56:54;;;;;;;141.65;75.15;;;;;;;;;;5013953;28;20556;-62
2021/03/22 11:59:20;;;;;;;22.27;15.50;;;;;;;;;;5013962;28;20034;-62
2021/03/22 12:02:04;;;;;;;9.80;6.18;;;;;;;;;;5014071;28;20072;-62
2021/03/22 12:04:30;;;;;;;45.03;24.95;;;;;;;;;;5012484;28;20100;-62
2021/03/22 12:07:01;;;;;;;10.57;7.82;;;;;;;;;;5013960;28;20030;-62
2021/03/22 12:09:27;;;;;;;48.67;31.75;;;;;;;;;;5013329;28;20030;-62
2021/03/22 12:11:53;;;;;;;33.88;21.92;;;;;;;;;;5013733;28;20030;-62
2021/03/22 12:14:19;;;;;;;13.18;9.38;;;;;;;;;;4996384;28;20062;-62
2021/03/22 12:16:45;;;;;;;11.70;9.60;;;;;;;;;;5013305;28;20093;-62
2021/03/22 12:19:16;;;;;;;2.50;2.30;;;;;;;;;;5013611;28;20029;-62
2021/03/22 12:21:45;;;;;;;6.32;3.28;;;;;;;;;;5013560;28;20501;-62
2021/03/22 12:24:12;;;;;;;6.03;5.13;;;;;;;;;;5013394;28;20076;-62
2021/03/22 12:26:37;;;;;;;15.85;9.10;;;;;;;;;;5013404;28;20030;-62
2021/03/22 12:29:09;;;;;;;25.50;19.25;;;;;;;;;;5013435;28;20025;-62
2021/03/22 12:31:42;;;;;;;16.20;13.55;;;;;;;;;;5013548;28;20030;-62
2021/03/22 12:34:17;;;;;;;4.97;4.28;;;;;;;;;;5013306;28;20029;-62
2021/03/22 12:36:51;;;;;;;6.70;5.82;;;;;;;;;;5013292;28;20030;-62
2021/03/22 12:39:26;;;;;;;5.53;5.00;;;;;;;;;;5028550;28;20026;-62
2021/03/22 12:42:02;;;;;;;10.55;7.97;;;;;;;;;;5013464;28;20498;-62
2021/03/22 12:44:31;;;;;;;3.15;2.85;;;;;;;;;;5013181;28;20038;-62
2021/03/22 12:46:58;;;;;;;1.55;1.45;;;;;;;;;;5013308;28;20026;-62
2021/03/22 12:49:23;;;;;;;9.82;3.15;;;;;;;;;;5013232;28;20105;-62
2021/03/22 12:51:50;;;;;;;3.30;2.40;;;;;;;;;;5013253;28;20101;-62
2021/03/22 12:54:17;;;;;;;3.03;2.75;;;;;;;;;;5013138;28;20032;-62
2021/03/22 12:56:43;;;;;;;2.05;1.85;;;;;;;;;;5013363;28;20026;-61
2021/03/22 12:59:24;;;;;;;4.03;1.75;;;;;;;;;;4995493;28;20501;-62
2021/03/22 13:01:50;;;;;;;5.65;3.60;;;;;;;;;;5013326;28;20157;-62
2021/03/22 13:04:15;;;;;;;11.45;5.57;;;;;;;;;;5013245;28;20030;-62
2021/03/22 13:06:41;;;;;;;2.17;1.65;;;;;;;;;;4995627;28;20026;-62
2021/03/22 13:09:06;;;;;;;2.70;2.42;;;;;;;;;;4995610;28;20017;-62
2021/03/22 13:11:32;;;;;;;2.97;2.20;;;;;;;;;;5012989;28;20029;-62
2021/03/22 13:13:57;;;;;;;3.08;2.60;;;;;;;;;;5013025;28;20528;-62
2021/03/22 13:16:22;;;;;;;2.97;2.25;;;;;;;;;;5012666;28;20026;-62
2021/03/22 13:18:48;;;;;;;2.63;2.33;;;;;;;;;;5013042;28;20393;-62
2021/03/22 13:21:15;;;;;;;4.07;2.40;;;;;;;;;;5012998;28;20040;-62
2021/03/22 13:23:42;;;;;;;3.70;2.00;;;;;;;;;;5016654;28;20022;-62
2021/03/22 13:26:08;;;;;;;3.05;2.38;;;;;;;;;;5016776;28;20034;-62
2021/03/22 13:28:38;;;;;;;4.90;4.40;;;;;;;;;;5016689;28;20113;-62
2021/03/22 13:31:05;;;;;;;8.82;4.18;;;;;;;;;;5016693;28;20541;-62
2021/03/22 13:33:31;;;;;;;8.95;4.38;;;;;;;;;;5016643;28;20022;-62
2021/03/22 13:35:57;;;;;;;6.95;4.20;;;;;;;;;;5016291;28;20426;-62
2021/03/22 13:38:24;;;;;;;13.30;5.80;;;;;;;;;;5015589;28;20045;-62
2021/03/22 13:40:52;;;;;;;8.70;5.40;;;;;;;;;;5016663;28;20062;-62
2021/03/22 13:43:22;;;;;;;13.43;7.97;;;;;;;;;;5016372;28;20068;-62
2021/03/22 13:45:48;;;;;;;11.63;5.47;;;;;;;;;;4998883;28;20022;-62
2021/03/22 13:48:14;;;;;;;10.95;5.63;;;;;;;;;;5016475;28;20592;-62
2021/03/22 13:50:40;;;;;;;11.10;5.80;;;;;;;;;;5016403;28;20033;-62
2021/03/22 13:53:05;;;;;;;5.55;4.00;;;;;;;;;;5016357;28;20477;-62
2021/03/22 13:55:31;;;;;;;6.82;3.95;;;;;;;;;;5016269;28;20489;-62
2021/03/22 13:57:57;;;;;;;7.40;4.30;;;;;;;;;;5016228;28;20446;-62
2021/03/22 14:00:28;;;;;;;6.45;4.20;;;;;;;;;;5016243;28;20037;-62
2021/03/22 14:02:54;;;;;;;6.85;3.55;;;;;;;;;;5016091;28;20386;-62
2021/03/22 14:05:23;;;;;;;4.40;3.20;;;;;;;;;;5016122;28;20022;-62
2021/03/22 14:07:50;;;;;;;7.53;3.77;;;;;;;;;;5031181;28;20030;-62
2021/03/22 14:10:16;;;;;;;4.88;3.35;;;;;;;;;;5015960;28;20311;-62
2021/03/22 14:12:41;;;;;;;4.85;3.33;;;;;;;;;;5015964;28;20057;-62
2021/03/22 14:15:08;;;;;;;5.45;3.55;;;;;;;;;;5031174;28;20045;-62
2021/03/22 14:17:34;;;;;;;6.30;3.78;;;;;;;;;;5015424;28;20053;-62
2021/03/22 14:19:59;;;;;;;5.25;3.47;;;;;;;;;;5015910;28;20112;-62
2021/03/22 14:22:25;;;;;;;5.47;3.67;;;;;;;;;;5014440;28;20049;-62
2021/03/22 14:24:56;;;;;;;4.70;3.40;;;;;;;;;;5015697;28;20028;-62
2021/03/22 14:27:22;;;;;;;4.20;3.30;;;;;;;;;;5031070;28;20033;-62
2021/03/22 14:29:49;;;;;;;100.60;35.50;;;;;;;;;;5015348;28;20351;-62
2021/03/22 14:32:14;;;;;;;16.35;7.43;;;;;;;;;;4997954;28;20030;-62
2021/03/22 14:34:40;;;;;;;50.63;21.40;;;;;;;;;;5015409;28;20025;-62
2021/03/22 14:37:06;;;;;;;134.43;51.83;;;;;;;;;;5015466;28;20363;-62
2021/03/22 14:39:31;;;;;;;15.25;7.13;;;;;;;;;;5015564;28;20268;-62
2021/03/22 14:41:57;;;;;;;77.47;28.77;;;;;;;;;;5013421;28;20032;-62
2021/03/22 14:44:22;;;;;;;83.40;26.85;;;;;;;;;;5011916;28;20026;-62
2021/03/22 14:46:48;;;;;;;380.63;108.80;;;;;;;;;;5015471;28;20085;-62
2021/03/22 14:49:13;;;;;;;928.35;289.55;;;;;;;;;;5014937;28;20010;-62